createdAt,value
2019-04-11T00:05:37.718Z,66.74
2019-04-11T00:08:06.359Z,67.31
2019-04-11T00:10:55.568Z,68.47
2019-04-11T00:13:27.545Z,67.50
2019-04-11T00:15:57.133Z,69.44
2019-04-11T00:21:33.394Z,68.30
2019-04-11T00:24:02.767Z,67.97
2019-04-11T00:26:33.481Z,67.95
2019-04-11T00:29:03.851Z,67.53
2019-04-11T00:31:33.423Z,67.95
2019-04-11T00:34:02.659Z,68.41
2019-04-11T00:36:32.567Z,68.78
2019-04-11T00:39:03.490Z,68.86
2019-04-11T00:41:34.301Z,68.89
2019-04-11T00:44:45.160Z,69.20
2019-04-11T00:47:15.137Z,70.77
2019-04-11T00:49:46.389Z,70.39
2019-04-11T00:52:16.244Z,71.62
2019-04-11T00:54:46.963Z,70.66
2019-04-11T00:57:57.095Z,70.80
2019-04-11T01:00:27.531Z,69.71
2019-04-11T01:02:56.222Z,70.15
2019-04-11T01:05:25.642Z,70.75
2019-04-11T01:07:56.727Z,70.50
2019-04-11T01:10:26.739Z,70.77
2019-04-11T01:12:56.610Z,71.33
2019-04-11T01:15:27.175Z,71.03
2019-04-11T01:20:48.006Z,70.87
2019-04-11T01:23:17.211Z,71.06
2019-04-11T01:25:46.473Z,70.82
2019-04-11T01:28:15.342Z,70.79
2019-04-11T01:31:03.485Z,70.75
2019-04-11T01:33:32.789Z,70.40
2019-04-11T01:36:02.689Z,70.96
2019-04-11T01:41:22.488Z,70.41
2019-04-11T01:43:56.472Z,71.39
2019-04-11T01:46:42.393Z,71.56
2019-04-11T01:52:06.497Z,71.26
2019-04-11T01:54:37.562Z,70.63
2019-04-11T01:57:07.203Z,71.31
2019-04-11T01:59:37.486Z,71.36
2019-04-11T02:02:26.443Z,71.50
2019-04-11T02:07:36.735Z,71.07
2019-04-11T02:10:45.356Z,70.90
2019-04-11T02:13:15.205Z,71.42
2019-04-11T02:15:46.283Z,72.07
2019-04-11T02:18:15.757Z,72.71
2019-04-11T02:20:45.177Z,72.41
2019-04-11T02:23:35.057Z,71.78
2019-04-11T02:26:23.648Z,70.80
2019-04-11T02:29:11.732Z,70.79
2019-04-11T02:31:42.400Z,71.40
2019-04-11T02:34:13.567Z,71.66
2019-04-11T02:37:02.470Z,71.64
2019-04-11T02:39:33.798Z,71.42
2019-04-11T02:42:03.858Z,71.79
2019-04-11T02:44:50.973Z,73.75
2019-04-11T02:47:09.814Z,72.32
2019-04-11T02:49:35.822Z,73.00
2019-04-11T02:52:07.169Z,73.23
2019-04-11T02:55:17.121Z,72.40
2019-04-11T03:00:42.066Z,73.77
2019-04-11T03:03:12.858Z,72.44
2019-04-11T03:05:41.924Z,73.21
2019-04-11T03:08:15.700Z,72.26
2019-04-11T03:10:43.046Z,72.45
2019-04-11T03:13:13.232Z,72.28
2019-04-11T03:16:00.501Z,72.79
2019-04-11T03:18:33.365Z,73.01
2019-04-11T03:20:49.795Z,72.95
2019-04-11T03:23:18.500Z,73.08
2019-04-11T03:25:45.484Z,73.91
2019-04-11T03:28:57.472Z,73.67
2019-04-11T03:32:04.181Z,74.63
2019-04-11T03:39:15.360Z,74.48
2019-04-11T03:41:48.829Z,74.70
2019-04-11T03:44:09.575Z,75.72
2019-04-11T03:46:48.328Z,75.81
2019-04-11T03:49:31.691Z,76.21
2019-04-11T03:51:53.105Z,75.96
2019-04-11T03:57:51.814Z,74.36
2019-04-11T04:00:23.747Z,74.62
2019-04-11T04:02:55.125Z,74.40
2019-04-11T04:05:26.387Z,74.29
2019-04-11T04:07:57.574Z,74.40
2019-04-11T04:13:03.288Z,76.07
2019-04-11T04:16:02.734Z,75.31
2019-04-11T04:18:43.590Z,75.24
2019-04-11T04:21:51.266Z,75.10
2019-04-11T04:24:42.721Z,75.36
2019-04-11T04:30:47.007Z,75.60
2019-04-11T04:33:19.350Z,76.12
2019-04-11T04:35:49.462Z,75.95
2019-04-11T04:38:41.367Z,75.65
2019-04-11T04:41:38.416Z,75.99
2019-04-11T04:44:22.288Z,76.04
2019-04-11T04:46:59.951Z,75.79
2019-04-11T04:49:21.516Z,75.46
2019-04-11T04:51:51.179Z,75.87
2019-04-11T04:54:22.167Z,75.76
2019-04-11T04:57:13.158Z,76.07
2019-04-11T04:59:42.528Z,75.86
2019-04-11T05:02:12.951Z,75.88
2019-04-11T05:04:43.711Z,75.88
2019-04-11T05:07:13.240Z,75.88
2019-04-11T05:09:42.647Z,76.10
2019-04-11T05:12:34.461Z,75.34
2019-04-11T05:15:03.762Z,75.40
2019-04-11T05:17:34.514Z,75.38
2019-04-11T05:20:24.855Z,75.33
2019-04-11T05:22:53.641Z,74.78
2019-04-11T05:25:22.345Z,74.76
2019-04-11T05:27:50.977Z,75.14
2019-04-11T05:30:19.763Z,74.52
2019-04-11T05:32:49.310Z,74.71
2019-04-11T05:35:18.761Z,74.11
2019-04-11T05:37:47.444Z,74.47
2019-04-11T05:40:16.868Z,73.60
2019-04-11T05:42:51.034Z,73.29
2019-04-11T05:45:21.064Z,74.18
2019-04-11T05:53:05.704Z,73.25
2019-04-11T06:01:24.397Z,72.37
2019-04-11T06:06:49.101Z,71.56
2019-04-11T06:09:39.764Z,71.03
2019-04-11T06:12:27.563Z,70.65
2019-04-11T06:17:32.375Z,70.12
2019-04-11T06:20:20.113Z,69.65
2019-04-11T06:23:07.923Z,69.43
2019-04-11T06:31:40.902Z,68.86
2019-04-11T06:34:09.629Z,68.72
2019-04-11T06:36:57.372Z,68.37
2019-04-11T06:39:45.358Z,68.35
2019-04-11T06:47:47.444Z,66.85
2019-04-11T06:50:35.472Z,66.42
2019-04-11T06:53:04.534Z,63.12
2019-04-11T06:56:13.045Z,60.14
2019-04-11T06:59:01.715Z,55.69
2019-04-11T07:01:31.284Z,53.31
2019-04-11T07:04:19.768Z,53.09
2019-04-11T07:09:57.657Z,56.21
2019-04-11T07:15:42.534Z,60.51
2019-04-11T07:18:31.226Z,60.84
2019-04-11T07:21:42.627Z,61.02
2019-04-11T07:24:49.714Z,62.18
2019-04-11T07:27:18.470Z,63.84
2019-04-11T07:30:25.793Z,63.65
2019-04-11T07:44:43.490Z,61.73
2019-04-11T07:52:42.591Z,57.18
2019-04-11T07:58:23.978Z,56.85
2019-04-11T08:04:08.563Z,57.79
2019-04-11T08:07:19.923Z,56.73
2019-04-11T08:10:30.313Z,57.38
2019-04-11T08:13:38.806Z,57.82
2019-04-11T08:16:47.374Z,58.64
2019-04-11T08:19:35.288Z,58.05
2019-04-11T08:30:55.179Z,56.78
2019-04-11T08:34:04.891Z,57.81
2019-04-11T08:36:54.941Z,57.46
2019-04-11T08:42:40.362Z,56.48
2019-04-11T08:48:28.890Z,53.40
2019-04-11T08:51:17.447Z,52.37
2019-04-11T08:54:05.260Z,52.85
2019-04-11T08:56:34.844Z,52.95
2019-04-11T08:59:43.843Z,52.92
2019-04-11T09:02:12.816Z,52.06
2019-04-11T09:05:07.039Z,52.43
2019-04-11T09:07:50.044Z,53.54
2019-04-11T09:10:37.985Z,54.12
2019-04-11T09:13:27.073Z,54.48
2019-04-11T09:16:15.438Z,53.38
2019-04-11T09:21:38.805Z,51.99
2019-04-11T09:24:26.620Z,49.80
2019-04-11T09:27:14.374Z,51.13
2019-04-11T09:30:02.627Z,49.81
2019-04-11T09:33:11.053Z,50.16
2019-04-11T09:35:59.714Z,49.43
2019-04-11T09:41:24.706Z,49.06
2019-04-11T09:52:40.938Z,46.75
2019-04-11T09:55:29.097Z,48.08
2019-04-11T10:03:37.107Z,48.11
2019-04-11T10:06:24.960Z,45.97
2019-04-11T10:11:48.704Z,46.81
2019-04-11T10:14:17.651Z,47.50
2019-04-11T10:17:06.844Z,45.25
2019-04-11T10:22:44.031Z,48.20
2019-04-11T10:25:32.191Z,46.27
2019-04-11T10:28:20.115Z,45.67
2019-04-11T10:31:08.515Z,47.21
2019-04-11T10:36:32.868Z,44.71
2019-04-11T10:39:21.580Z,44.60
2019-04-11T10:42:10.561Z,45.83
2019-04-11T10:44:58.436Z,47.00
2019-04-11T10:56:04.242Z,43.86
2019-04-11T11:04:18.086Z,43.29
2019-04-11T11:21:02.611Z,44.49
2019-04-11T11:23:50.492Z,45.03
2019-04-11T11:29:15.821Z,47.11
2019-04-11T11:32:05.152Z,47.90
2019-04-11T11:37:42.737Z,47.99
2019-04-11T11:40:30.639Z,48.81
2019-04-11T11:43:19.034Z,49.16
2019-04-11T11:46:07.025Z,44.53
2019-04-11T11:48:54.776Z,46.50
2019-04-11T11:51:43.579Z,47.00
2019-04-11T12:05:29.859Z,43.46
2019-04-11T12:08:18.210Z,44.56
2019-04-11T12:13:55.807Z,43.66
2019-04-11T12:19:44.688Z,42.18
2019-04-11T12:22:04.284Z,41.56
2019-04-11T12:24:52.786Z,41.31
2019-04-11T12:32:57.384Z,44.91
2019-04-11T12:44:04.449Z,46.69
2019-04-11T12:46:52.281Z,44.20
2019-04-11T12:49:40.193Z,44.71
2019-04-11T12:52:27.991Z,43.65
2019-04-11T12:55:15.773Z,45.57
2019-04-11T12:58:03.514Z,44.14
2019-04-11T13:06:37.650Z,43.63
2019-04-11T13:09:46.635Z,43.71
2019-04-11T13:12:35.809Z,44.44
2019-04-11T13:15:44.289Z,48.42
2019-04-11T13:21:07.796Z,45.21
2019-04-11T13:23:55.610Z,46.52
2019-04-11T13:26:43.383Z,45.52
2019-04-11T13:29:31.189Z,44.68
2019-04-11T13:32:18.958Z,44.26
2019-04-11T13:37:42.531Z,45.68
2019-04-11T13:40:30.446Z,46.46
2019-04-11T13:43:18.148Z,44.48
2019-04-11T13:46:05.969Z,44.58
2019-04-11T13:48:53.691Z,44.93
2019-04-11T13:51:41.509Z,43.16
2019-04-11T13:54:29.329Z,41.85
2019-04-11T13:57:17.025Z,41.33
2019-04-11T14:00:04.842Z,39.75
2019-04-11T14:02:52.656Z,40.57
2019-04-11T14:11:04.883Z,40.51
2019-04-11T14:19:22.330Z,40.40
2019-04-11T14:24:45.282Z,40.84
2019-04-11T14:27:33.067Z,42.18
2019-04-11T14:30:20.794Z,42.45
2019-04-11T14:41:41.571Z,43.16
2019-04-11T14:44:09.623Z,42.12
2019-04-11T14:46:57.359Z,41.72
2019-04-11T14:49:27.188Z,41.97
2019-04-11T14:52:17.288Z,40.77
2019-04-11T14:54:48.921Z,41.07
2019-04-11T14:57:35.540Z,38.66
2019-04-11T15:00:43.970Z,38.38
2019-04-11T15:03:31.803Z,39.84
2019-04-11T15:09:08.820Z,40.29
2019-04-11T15:11:56.614Z,40.12
2019-04-11T15:14:47.508Z,40.27
2019-04-11T15:23:18.360Z,41.95
2019-04-11T15:26:08.191Z,39.84
2019-04-11T15:28:55.588Z,38.75
2019-04-11T15:31:43.360Z,37.58
2019-04-11T15:34:31.179Z,38.49
2019-04-11T15:40:08.193Z,38.60
2019-04-11T15:42:55.957Z,39.56
2019-04-11T15:45:46.477Z,40.94
2019-04-11T15:48:33.296Z,40.96
2019-04-11T15:51:20.990Z,41.74
2019-04-11T15:56:47.927Z,41.44
2019-04-11T16:02:11.658Z,40.67
2019-04-11T16:05:02.016Z,41.04
2019-04-11T16:07:48.980Z,41.86
2019-04-11T16:13:12.061Z,40.32
2019-04-11T16:18:35.150Z,40.73
2019-04-11T16:29:22.891Z,40.05
2019-04-11T16:37:23.220Z,41.87
2019-04-11T16:40:10.843Z,42.74
2019-04-11T16:45:55.336Z,41.03
2019-04-11T16:48:26.522Z,40.37
2019-04-11T16:50:55.205Z,41.28
2019-04-11T16:53:23.898Z,41.71
2019-04-11T16:55:53.913Z,41.42
2019-04-11T16:58:23.110Z,40.03
2019-04-11T17:00:52.666Z,40.63
2019-04-11T17:03:24.789Z,40.18
2019-04-11T17:06:11.859Z,41.26
2019-04-11T17:13:51.346Z,42.64
2019-04-11T17:16:20.127Z,41.32
2019-04-11T17:18:48.772Z,41.90
2019-04-11T17:21:17.494Z,41.89
2019-04-11T17:23:47.154Z,43.01
2019-04-11T17:26:16.498Z,43.10
2019-04-11T17:28:45.172Z,42.88
2019-04-11T17:31:14.100Z,43.23
2019-04-11T17:33:42.762Z,43.76
2019-04-11T17:36:11.475Z,44.47
2019-04-11T17:38:40.158Z,44.44
2019-04-11T17:41:11.359Z,44.83
2019-04-11T17:43:41.990Z,45.11
2019-04-11T17:46:09.657Z,45.70
2019-04-11T17:48:38.223Z,45.93
2019-04-11T17:51:09.435Z,46.13
2019-04-11T17:53:37.282Z,46.90
2019-04-11T17:56:05.936Z,46.95
2019-04-11T17:58:34.616Z,46.95
2019-04-11T18:03:58.069Z,46.66
2019-04-11T18:06:26.715Z,48.05
2019-04-11T18:08:55.355Z,48.09
2019-04-11T18:11:26.226Z,48.58
2019-04-11T18:13:54.364Z,47.39
2019-04-11T18:16:22.951Z,47.71
2019-04-11T18:18:51.569Z,48.11
2019-04-11T18:21:39.487Z,47.85
2019-04-11T18:24:50.153Z,48.45
2019-04-11T18:29:53.955Z,49.08
2019-04-11T18:35:31.935Z,48.91
2019-04-11T18:40:55.405Z,48.68
2019-04-11T18:43:25.529Z,49.67
2019-04-11T18:45:54.368Z,49.71
2019-04-11T18:48:23.020Z,49.62
2019-04-11T18:50:53.193Z,50.12
2019-04-11T18:53:22.165Z,49.36
2019-04-11T18:55:50.883Z,49.59
2019-04-11T18:58:19.533Z,50.18
2019-04-11T19:00:48.216Z,49.26
2019-04-11T19:03:16.802Z,50.06
2019-04-11T19:05:45.514Z,49.92
2019-04-11T19:08:33.566Z,50.28
2019-04-11T19:11:02.300Z,50.46
2019-04-11T19:13:30.992Z,50.66
2019-04-11T19:15:59.695Z,50.65
2019-04-11T19:18:28.336Z,50.97
2019-04-11T19:20:56.983Z,51.27
2019-04-11T19:23:25.601Z,52.16
2019-04-11T19:25:54.175Z,51.80
2019-04-11T19:28:24.946Z,52.22
2019-04-11T19:30:53.980Z,52.56
2019-04-11T19:33:23.601Z,52.61
2019-04-11T19:35:52.255Z,52.76
2019-04-11T19:38:43.058Z,52.09
2019-04-11T19:41:10.663Z,51.92
2019-04-11T19:43:40.814Z,52.44
2019-04-11T19:46:09.653Z,53.19
2019-04-11T19:48:38.304Z,53.09
2019-04-11T19:51:06.996Z,52.85
2019-04-11T19:53:35.678Z,53.02
2019-04-11T19:58:43.786Z,53.57
2019-04-11T20:01:12.471Z,53.49
2019-04-11T20:03:41.202Z,53.38
2019-04-11T20:06:13.114Z,53.03
2019-04-11T20:08:44.277Z,53.08
2019-04-11T20:11:12.900Z,53.20
2019-04-11T20:13:49.144Z,54.22
2019-04-11T20:16:17.730Z,54.17
2019-04-11T20:18:51.361Z,53.84
2019-04-11T20:21:16.729Z,54.15
2019-04-11T20:23:45.350Z,53.93
2019-04-11T20:26:13.968Z,54.64
2019-04-11T20:28:42.595Z,54.62
2019-04-11T20:31:11.290Z,54.51
2019-04-11T20:33:39.959Z,54.70
2019-04-11T20:36:11.114Z,54.30
2019-04-11T20:38:39.061Z,54.63
2019-04-11T20:41:07.718Z,54.68
2019-04-11T20:43:36.358Z,54.96
2019-04-11T20:46:05.034Z,55.07
2019-04-11T20:48:35.165Z,54.72
2019-04-11T20:51:04.277Z,55.40
2019-04-11T20:53:36.796Z,54.62
2019-04-11T20:56:44.584Z,55.00
2019-04-11T20:59:13.269Z,55.14
2019-04-11T21:01:41.916Z,55.52
2019-04-11T21:04:10.688Z,55.82
2019-04-11T21:06:39.326Z,55.76
2019-04-11T21:09:47.809Z,55.81
2019-04-11T21:15:24.978Z,56.58
2019-04-11T21:18:13.001Z,56.38
2019-04-11T21:20:41.623Z,57.23
2019-04-11T21:23:10.293Z,57.36
2019-04-11T21:25:38.905Z,57.72
2019-04-11T21:28:07.589Z,57.37
2019-04-11T21:30:36.243Z,57.33
2019-04-11T21:33:04.912Z,57.72
2019-04-11T21:35:34.031Z,57.96
2019-04-11T21:38:03.950Z,58.04
2019-04-11T21:40:35.645Z,58.23
2019-04-11T21:43:05.968Z,58.54
2019-04-11T21:45:35.434Z,59.29
2019-04-11T21:48:05.763Z,59.01
2019-04-11T21:50:34.157Z,58.88
2019-04-11T21:53:02.807Z,59.45
2019-04-11T21:58:26.398Z,59.71
2019-04-11T22:01:34.828Z,60.09
2019-04-11T22:04:03.578Z,59.79
2019-04-11T22:06:32.206Z,60.03
2019-04-11T22:09:04.875Z,60.84
2019-04-11T22:11:31.244Z,60.40
2019-04-11T22:13:59.867Z,60.29
2019-04-11T22:16:28.511Z,60.74
2019-04-11T22:18:57.213Z,60.81
2019-04-11T22:21:25.814Z,61.63
2019-04-11T22:23:54.503Z,61.50
2019-04-11T22:26:23.145Z,61.94
2019-04-11T22:28:54.870Z,62.30
2019-04-11T22:31:24.737Z,61.73
2019-04-11T22:34:11.773Z,62.10
2019-04-11T22:36:40.448Z,62.11
2019-04-11T22:39:48.873Z,62.19
2019-04-11T22:42:17.630Z,62.58
2019-04-11T22:44:46.203Z,62.83
2019-04-11T22:47:14.826Z,63.21
2019-04-11T22:49:43.463Z,63.68
2019-04-11T22:52:12.202Z,64.07
2019-04-11T22:54:41.766Z,63.75
2019-04-11T22:57:12.120Z,64.38
2019-04-11T22:59:44.058Z,64.30
2019-04-11T23:02:31.139Z,64.93
2019-04-11T23:04:59.757Z,64.65
2019-04-11T23:07:28.407Z,65.07
2019-04-11T23:09:57.142Z,64.50
2019-04-11T23:12:25.726Z,65.28
2019-04-11T23:14:54.406Z,64.85
2019-04-11T23:17:23.075Z,66.10
2019-04-11T23:19:51.726Z,65.64
2019-04-11T23:22:20.406Z,65.74
2019-04-11T23:24:49.056Z,66.16
2019-04-11T23:27:17.741Z,66.81
2019-04-11T23:29:47.165Z,66.08
2019-04-11T23:32:18.850Z,66.01
2019-04-11T23:34:47.092Z,66.72
2019-04-11T23:37:15.726Z,66.93
2019-04-11T23:39:44.429Z,66.91
2019-04-11T23:42:13.200Z,66.96
2019-04-11T23:44:41.741Z,67.29
2019-04-11T23:47:10.342Z,67.24
2019-04-11T23:49:38.969Z,67.32
2019-04-11T23:52:07.644Z,67.36
2019-04-11T23:57:25.544Z,67.20
2019-04-11T23:59:54.130Z,67.75
